createdAt,value
2022-09-17T00:01:31.326Z,10.10
2022-09-17T00:04:03.975Z,10.08
2022-09-17T00:06:35.179Z,10.09
2022-09-17T00:09:04.142Z,10.04
2022-09-17T00:11:34.083Z,10.12
2022-09-17T00:14:04.541Z,10.12
2022-09-17T00:16:37.136Z,10.17
2022-09-17T00:19:06.314Z,10.16
2022-09-17T00:21:35.711Z,10.17
2022-09-17T00:24:07.282Z,10.11
2022-09-17T00:26:36.718Z,10.09
2022-09-17T00:29:05.493Z,10.05
2022-09-17T00:31:33.942Z,10.01
2022-09-17T00:34:03.637Z,10.00
2022-09-17T00:36:32.148Z,9.96
2022-09-17T00:39:01.542Z,9.91
2022-09-17T00:41:31.936Z,9.84
2022-09-17T00:44:01.065Z,9.83
2022-09-17T00:46:36.065Z,9.79
2022-09-17T00:49:07.100Z,9.78
2022-09-17T00:51:38.231Z,9.75
2022-09-17T00:54:10.723Z,9.71
2022-09-17T00:56:43.478Z,9.72
2022-09-17T00:59:11.784Z,9.69
2022-09-17T01:01:39.769Z,9.70
2022-09-17T01:04:07.844Z,9.70
2022-09-17T01:06:43.324Z,9.68
2022-09-17T01:09:27.742Z,9.64
2022-09-17T01:12:19.092Z,9.59
2022-09-17T01:15:00.249Z,9.56
2022-09-17T01:17:36.865Z,9.56
2022-09-17T01:20:42.170Z,9.54
2022-09-17T01:23:38.407Z,9.48
2022-09-17T01:26:29.120Z,9.48
2022-09-17T01:29:09.003Z,9.49
2022-09-17T01:31:49.104Z,9.48
2022-09-17T01:34:24.259Z,9.46
2022-09-17T01:37:04.568Z,9.45
2022-09-17T01:39:43.312Z,9.42
2022-09-17T01:42:19.808Z,9.44
2022-09-17T01:44:56.456Z,9.38
2022-09-17T01:47:30.988Z,9.36
2022-09-17T01:50:05.374Z,9.18
2022-09-17T01:52:36.928Z,9.33
2022-09-17T01:55:08.650Z,9.32
2022-09-17T01:57:41.375Z,9.30
2022-09-17T02:00:13.537Z,9.26
2022-09-17T02:02:47.630Z,9.21
2022-09-17T02:05:20.883Z,9.17
2022-09-17T02:07:53.446Z,9.19
2022-09-17T02:12:58.006Z,9.14
2022-09-17T02:15:31.585Z,9.09
2022-09-17T02:18:07.024Z,9.07
2022-09-17T02:20:42.454Z,9.03
2022-09-17T02:23:16.639Z,8.97
2022-09-17T02:25:51.216Z,8.95
2022-09-17T02:28:25.343Z,8.97
2022-09-17T02:30:53.326Z,8.97
2022-09-17T02:33:24.097Z,8.98
2022-09-17T02:35:52.304Z,8.97
2022-09-17T02:38:26.357Z,9.03
2022-09-17T02:41:06.862Z,9.06
2022-09-17T02:43:42.976Z,9.04
2022-09-17T02:46:29.863Z,9.07
2022-09-17T02:49:17.658Z,9.03
2022-09-17T02:51:53.978Z,9.04
2022-09-17T02:54:30.220Z,9.06
2022-09-17T02:57:08.709Z,9.07
2022-09-17T02:59:42.507Z,9.05
2022-09-17T03:02:19.166Z,9.13
2022-09-17T03:04:50.653Z,9.12
2022-09-17T03:07:20.808Z,9.15
2022-09-17T03:09:48.800Z,9.18
2022-09-17T03:12:17.732Z,9.15
2022-09-17T03:14:45.688Z,9.20
2022-09-17T03:17:14.920Z,9.20
2022-09-17T03:19:42.876Z,9.20
2022-09-17T03:22:12.542Z,9.25
2022-09-17T03:24:40.662Z,9.24
2022-09-17T03:27:08.628Z,9.26
2022-09-17T03:29:36.569Z,9.30
2022-09-17T03:32:05.424Z,9.27
2022-09-17T03:34:33.496Z,9.28
2022-09-17T03:37:02.282Z,9.28
2022-09-17T03:39:31.792Z,9.26
2022-09-17T03:41:59.709Z,9.24
2022-09-17T03:44:27.626Z,9.20
2022-09-17T03:46:55.721Z,9.18
2022-09-17T03:49:24.860Z,9.16
2022-09-17T03:51:52.890Z,9.10
2022-09-17T03:54:21.050Z,9.10
2022-09-17T03:56:50.509Z,9.12
2022-09-17T03:59:18.473Z,9.15
2022-09-17T04:01:46.599Z,9.19
2022-09-17T04:04:14.582Z,9.23
2022-09-17T04:06:42.520Z,9.30
2022-09-17T04:09:10.589Z,9.36
2022-09-17T04:11:38.540Z,9.41
2022-09-17T04:14:07.826Z,9.43
2022-09-17T04:16:36.362Z,9.45
2022-09-17T04:19:04.595Z,9.46
2022-09-17T04:21:32.555Z,9.47
2022-09-17T04:24:00.590Z,9.49
2022-09-17T04:26:28.528Z,9.47
2022-09-17T04:28:56.761Z,9.49
2022-09-17T04:31:27.155Z,9.50
2022-09-17T04:33:55.219Z,9.50
2022-09-17T04:36:23.171Z,9.50
2022-09-17T04:38:51.244Z,9.51
2022-09-17T04:41:19.178Z,9.50
2022-09-17T04:43:47.355Z,9.47
2022-09-17T04:46:16.863Z,9.43
2022-09-17T04:48:46.275Z,9.39
2022-09-17T04:51:14.272Z,9.39
2022-09-17T04:53:42.280Z,9.33
2022-09-17T04:56:10.229Z,9.32
2022-09-17T04:58:38.183Z,9.29
2022-09-17T05:01:06.456Z,9.26
2022-09-17T05:03:34.539Z,9.28
2022-09-17T05:06:03.897Z,9.21
2022-09-17T05:08:31.905Z,9.17
2022-09-17T05:10:59.835Z,9.14
2022-09-17T05:13:27.809Z,9.13
2022-09-17T05:15:56.624Z,9.08
2022-09-17T05:18:25.337Z,9.06
2022-09-17T05:20:53.559Z,9.05
2022-09-17T05:23:22.865Z,9.07
2022-09-17T05:25:50.823Z,9.09
2022-09-17T05:28:18.808Z,9.10
2022-09-17T05:30:46.763Z,9.08
2022-09-17T05:33:14.751Z,9.11
2022-09-17T05:35:44.113Z,9.08
2022-09-17T05:38:12.122Z,9.11
2022-09-17T05:40:41.516Z,9.12
2022-09-17T05:43:11.110Z,9.13
2022-09-17T05:45:39.702Z,9.17
2022-09-17T05:48:10.740Z,9.21
2022-09-17T05:50:38.835Z,9.27
2022-09-17T05:53:08.232Z,9.30
2022-09-17T05:55:36.252Z,9.35
2022-09-17T05:58:12.501Z,9.32
2022-09-17T06:00:41.026Z,9.32
2022-09-17T06:03:09.867Z,9.27
2022-09-17T06:05:37.949Z,9.27
2022-09-17T06:08:06.562Z,9.25
2022-09-17T06:10:37.191Z,9.28
2022-09-17T06:13:05.234Z,9.29
2022-09-17T06:15:34.617Z,9.30
2022-09-17T06:18:02.579Z,9.28
2022-09-17T06:20:30.533Z,9.27
2022-09-17T06:22:58.714Z,9.23
2022-09-17T06:25:27.427Z,9.21
2022-09-17T06:27:55.423Z,9.22
2022-09-17T06:30:23.499Z,9.19
2022-09-17T06:32:52.893Z,9.18
2022-09-17T06:35:20.936Z,9.08
2022-09-17T06:37:48.952Z,9.10
2022-09-17T06:40:17.764Z,9.10
2022-09-17T06:42:45.858Z,9.04
2022-09-17T06:45:16.788Z,9.04
2022-09-17T06:47:45.177Z,9.01
2022-09-17T06:50:14.686Z,9.06
2022-09-17T06:52:49.242Z,9.10
2022-09-17T06:55:17.432Z,9.13
2022-09-17T06:57:45.700Z,9.20
2022-09-17T07:00:15.548Z,9.26
2022-09-17T07:02:43.530Z,9.44
2022-09-17T07:05:11.490Z,9.52
2022-09-17T07:07:41.160Z,9.64
2022-09-17T07:10:09.762Z,9.79
2022-09-17T07:12:42.921Z,10.04
2022-09-17T07:15:13.860Z,10.26
2022-09-17T07:17:42.634Z,10.42
2022-09-17T07:20:11.619Z,10.43
2022-09-17T07:22:41.039Z,10.33
2022-09-17T07:25:10.086Z,10.19
2022-09-17T07:27:38.075Z,10.12
2022-09-17T07:30:07.150Z,10.06
2022-09-17T07:32:35.122Z,10.04
2022-09-17T07:35:03.594Z,10.01
2022-09-17T07:37:31.602Z,10.01
2022-09-17T07:40:00.970Z,9.97
2022-09-17T07:42:28.994Z,10.00
2022-09-17T07:45:01.283Z,9.86
2022-09-17T07:47:30.088Z,9.83
2022-09-17T07:49:58.025Z,9.77
2022-09-17T07:52:26.040Z,9.78
2022-09-17T07:54:54.005Z,9.68
2022-09-17T07:57:23.354Z,9.67
2022-09-17T07:59:51.345Z,9.70
2022-09-17T08:02:24.132Z,9.71
2022-09-17T08:04:52.541Z,9.74
2022-09-17T08:07:20.560Z,9.84
2022-09-17T08:09:48.537Z,9.91
2022-09-17T08:12:18.283Z,10.04
2022-09-17T08:14:47.598Z,10.14
2022-09-17T08:17:15.754Z,10.23
2022-09-17T08:19:43.724Z,10.33
2022-09-17T08:22:11.899Z,10.40
2022-09-17T08:24:39.894Z,10.42
2022-09-17T08:27:07.873Z,10.46
2022-09-17T08:29:35.821Z,10.53
2022-09-17T08:32:05.616Z,10.66
2022-09-17T08:34:33.691Z,10.72
2022-09-17T08:37:02.892Z,10.89
2022-09-17T08:39:30.846Z,10.91
2022-09-17T08:42:10.435Z,10.98
2022-09-17T08:44:42.879Z,11.16
2022-09-17T08:47:18.489Z,11.26
2022-09-17T08:49:51.765Z,11.38
2022-09-17T08:52:58.156Z,11.51
2022-09-17T08:55:35.190Z,11.49
2022-09-17T08:58:24.978Z,11.57
2022-09-17T09:00:58.776Z,11.38
2022-09-17T09:03:43.560Z,11.11
2022-09-17T09:06:13.013Z,11.02
2022-09-17T09:08:44.229Z,10.89
2022-09-17T09:11:16.273Z,10.92
2022-09-17T09:13:48.107Z,11.00
2022-09-17T09:16:19.550Z,11.07
2022-09-17T09:18:53.293Z,11.12
2022-09-17T09:21:28.089Z,11.17
2022-09-17T09:23:58.963Z,10.98
2022-09-17T09:26:41.014Z,10.95
2022-09-17T09:29:22.976Z,10.71
2022-09-17T09:32:16.197Z,10.55
2022-09-17T09:34:48.972Z,10.60
2022-09-17T09:37:21.030Z,10.64
2022-09-17T09:39:52.296Z,10.76
2022-09-17T09:42:28.365Z,10.96
2022-09-17T09:45:04.151Z,11.01
2022-09-17T09:47:53.522Z,11.11
2022-09-17T09:51:01.795Z,11.12
2022-09-17T09:53:32.632Z,11.21
2022-09-17T09:56:15.197Z,11.18
2022-09-17T09:58:43.222Z,11.30
2022-09-17T10:01:15.608Z,11.54
2022-09-17T10:03:46.113Z,11.60
2022-09-17T10:06:17.239Z,11.50
2022-09-17T10:09:14.301Z,11.43
2022-09-17T10:11:42.424Z,11.45
2022-09-17T10:14:32.228Z,11.47
2022-09-17T10:17:15.079Z,11.63
2022-09-17T10:19:43.767Z,11.74
2022-09-17T10:22:32.789Z,11.72
2022-09-17T10:25:02.553Z,11.68
2022-09-17T10:27:31.540Z,11.62
2022-09-17T10:30:14.775Z,11.79
2022-09-17T10:32:42.950Z,12.02
2022-09-17T10:35:27.492Z,11.99
2022-09-17T10:37:56.905Z,12.09
2022-09-17T10:40:30.682Z,12.14
2022-09-17T10:43:23.718Z,12.08
2022-09-17T10:45:59.405Z,12.04
2022-09-17T10:48:32.298Z,11.96
2022-09-17T10:51:02.990Z,11.75
2022-09-17T10:53:32.605Z,11.66
2022-09-17T10:56:11.731Z,11.76
2022-09-17T10:58:53.913Z,11.80
2022-09-17T11:01:38.137Z,11.74
2022-09-17T11:04:30.557Z,11.82
2022-09-17T11:07:26.748Z,11.98
2022-09-17T11:10:03.918Z,11.86
2022-09-17T11:12:46.826Z,11.84
2022-09-17T11:15:30.964Z,11.63
2022-09-17T11:18:25.489Z,11.36
2022-09-17T11:21:08.541Z,11.56
2022-09-17T11:23:54.878Z,11.77
2022-09-17T11:26:33.653Z,11.94
2022-09-17T11:29:16.912Z,11.82
2022-09-17T11:31:57.361Z,11.86
2022-09-17T11:34:32.923Z,11.99
2022-09-17T11:37:06.811Z,12.11
2022-09-17T11:39:42.403Z,12.30
2022-09-17T11:42:19.707Z,12.53
2022-09-17T11:44:53.905Z,12.63
2022-09-17T11:47:26.882Z,12.88
2022-09-17T11:50:01.589Z,13.32
2022-09-17T11:52:36.184Z,13.11
2022-09-17T11:55:10.842Z,13.29
2022-09-17T11:57:43.117Z,13.35
2022-09-17T12:00:17.889Z,13.43
2022-09-17T12:02:51.416Z,13.36
2022-09-17T12:05:22.861Z,13.41
2022-09-17T12:07:57.713Z,13.46
2022-09-17T12:10:44.697Z,13.27
2022-09-17T12:13:24.362Z,13.48
2022-09-17T12:15:58.599Z,13.59
2022-09-17T12:18:41.505Z,13.46
2022-09-17T12:21:14.887Z,13.35
2022-09-17T12:23:49.333Z,13.15
2022-09-17T12:26:33.585Z,13.27
2022-09-17T12:29:12.077Z,13.42
2022-09-17T12:31:47.187Z,13.59
2022-09-17T12:34:33.068Z,14.15
2022-09-17T12:37:09.928Z,15.85
2022-09-17T12:39:56.922Z,17.66
2022-09-17T12:42:40.107Z,16.96
2022-09-17T12:45:22.316Z,16.50
2022-09-17T12:48:17.453Z,15.71
2022-09-17T12:50:56.222Z,16.36
2022-09-17T12:53:30.192Z,17.51
2022-09-17T12:56:11.446Z,17.08
2022-09-17T12:58:56.385Z,16.57
2022-09-17T13:01:32.026Z,15.82
2022-09-17T13:04:12.934Z,15.02
2022-09-17T13:07:13.438Z,14.44
2022-09-17T13:10:02.519Z,14.30
2022-09-17T13:12:38.421Z,15.10
2022-09-17T13:15:31.825Z,16.21
2022-09-17T13:18:27.450Z,16.50
2022-09-17T13:21:04.369Z,18.23
2022-09-17T13:23:40.339Z,18.89
2022-09-17T13:26:10.062Z,20.10
2022-09-17T13:28:46.956Z,20.90
2022-09-17T13:31:21.848Z,19.06
2022-09-17T13:33:53.387Z,17.93
2022-09-17T13:36:43.075Z,15.29
2022-09-17T13:39:32.530Z,13.38
2022-09-17T13:42:06.265Z,12.44
2022-09-17T13:44:36.424Z,11.84
2022-09-17T13:47:18.730Z,11.12
2022-09-17T13:49:55.496Z,10.84
2022-09-17T13:52:35.773Z,10.72
2022-09-17T13:55:05.221Z,10.60
2022-09-17T13:57:35.424Z,10.66
2022-09-17T14:00:03.595Z,10.71
2022-09-17T14:02:38.320Z,10.89
2022-09-17T14:05:30.830Z,11.13
2022-09-17T14:08:28.627Z,11.57
2022-09-17T14:11:00.805Z,12.34
2022-09-17T14:13:46.489Z,12.76
2022-09-17T14:16:37.096Z,13.22
2022-09-17T14:19:34.127Z,13.75
2022-09-17T14:22:16.486Z,13.61
2022-09-17T14:24:51.254Z,13.00
2022-09-17T14:27:31.799Z,11.96
2022-09-17T14:30:15.432Z,11.56
2022-09-17T14:32:49.820Z,11.19
2022-09-17T14:35:22.577Z,11.13
2022-09-17T14:37:56.964Z,11.03
2022-09-17T14:40:26.062Z,10.88
2022-09-17T14:42:56.992Z,10.96
2022-09-17T14:45:29.374Z,10.98
2022-09-17T14:48:20.046Z,11.03
2022-09-17T14:50:48.013Z,11.09
2022-09-17T14:53:21.056Z,11.11
2022-09-17T14:55:51.674Z,11.27
2022-09-17T14:58:36.317Z,11.19
2022-09-17T15:01:04.951Z,11.17
2022-09-17T15:03:32.909Z,11.13
2022-09-17T15:06:00.987Z,11.13
2022-09-17T15:08:30.431Z,11.29
2022-09-17T15:11:01.347Z,11.58
2022-09-17T15:13:31.360Z,11.46
2022-09-17T15:16:03.042Z,11.49
2022-09-17T15:18:38.609Z,11.52
2022-09-17T15:21:22.216Z,11.43
2022-09-17T15:23:56.597Z,11.45
2022-09-17T15:26:29.215Z,11.55
2022-09-17T15:28:58.622Z,11.88
2022-09-17T15:31:30.203Z,12.09
2022-09-17T15:34:00.950Z,12.13
2022-09-17T15:36:31.590Z,12.37
2022-09-17T15:39:00.943Z,12.67
2022-09-17T15:41:31.868Z,12.87
2022-09-17T15:44:29.920Z,12.75
2022-09-17T15:47:34.404Z,12.38
2022-09-17T15:50:14.664Z,12.21
2022-09-17T15:52:43.002Z,12.12
2022-09-17T15:55:41.418Z,11.79
2022-09-17T15:58:23.645Z,11.78
2022-09-17T16:01:47.395Z,11.76
2022-09-17T16:04:22.963Z,11.58
2022-09-17T16:06:55.956Z,11.60
2022-09-17T16:09:42.681Z,11.55
2022-09-17T16:12:14.302Z,11.51
2022-09-17T16:14:50.428Z,11.52
2022-09-17T16:17:33.020Z,11.51
2022-09-17T16:20:08.773Z,11.49
2022-09-17T16:22:36.829Z,11.47
2022-09-17T16:25:05.448Z,11.47
2022-09-17T16:27:36.995Z,11.44
2022-09-17T16:30:09.578Z,11.40
2022-09-17T16:32:37.587Z,11.38
2022-09-17T16:35:07.546Z,11.37
2022-09-17T16:37:35.529Z,11.35
2022-09-17T16:40:03.696Z,11.32
2022-09-17T16:42:32.095Z,11.28
2022-09-17T16:45:01.103Z,11.30
2022-09-17T16:47:31.301Z,11.30
2022-09-17T16:49:59.298Z,11.28
2022-09-17T16:52:28.634Z,11.30
2022-09-17T16:54:56.555Z,11.25
2022-09-17T16:57:24.705Z,11.28
2022-09-17T16:59:52.709Z,11.24
2022-09-17T17:02:20.656Z,11.27
2022-09-17T17:04:48.604Z,11.18
2022-09-17T17:07:16.754Z,11.21
2022-09-17T17:09:46.110Z,11.21
2022-09-17T17:12:14.041Z,11.22
2022-09-17T17:14:41.992Z,11.21
2022-09-17T17:17:10.228Z,11.20
2022-09-17T17:19:38.931Z,11.19
2022-09-17T17:22:08.581Z,11.16
2022-09-17T17:24:36.582Z,11.15
2022-09-17T17:27:06.727Z,11.12
2022-09-17T17:29:35.329Z,11.09
2022-09-17T17:32:03.980Z,11.09
2022-09-17T17:34:32.442Z,11.08
2022-09-17T17:37:00.495Z,11.01
2022-09-17T17:39:29.047Z,10.98
2022-09-17T17:41:56.986Z,10.92
2022-09-17T17:44:26.352Z,10.91
2022-09-17T17:46:54.377Z,10.94
2022-09-17T17:49:22.365Z,10.93
2022-09-17T17:51:50.705Z,10.91
2022-09-17T17:54:18.670Z,10.88
2022-09-17T17:56:46.614Z,10.83
2022-09-17T17:59:14.573Z,10.78
2022-09-17T18:01:44.264Z,10.75
2022-09-17T18:04:12.380Z,10.71
2022-09-17T18:06:40.418Z,10.64
2022-09-17T18:09:08.536Z,10.63
2022-09-17T18:11:36.926Z,10.56
2022-09-17T18:14:04.935Z,10.52
2022-09-17T18:16:33.387Z,10.53
2022-09-17T18:19:02.803Z,10.50
2022-09-17T18:21:30.954Z,10.49
2022-09-17T18:23:59.263Z,10.41
2022-09-17T18:26:28.580Z,10.44
2022-09-17T18:28:56.772Z,10.38
2022-09-17T18:31:27.202Z,10.38
2022-09-17T18:33:59.614Z,10.35
2022-09-17T18:36:30.753Z,10.32
2022-09-17T18:39:16.669Z,10.32
2022-09-17T18:41:49.779Z,10.34
2022-09-17T18:44:19.005Z,10.26
2022-09-17T18:46:47.976Z,10.24
2022-09-17T18:49:16.253Z,10.24
2022-09-17T18:51:45.633Z,10.29
2022-09-17T18:54:13.751Z,10.27
2022-09-17T18:56:42.452Z,10.30
2022-09-17T18:59:11.246Z,10.31
2022-09-17T19:01:39.284Z,10.30
2022-09-17T19:04:08.386Z,10.26
2022-09-17T19:06:36.614Z,10.29
2022-09-17T19:09:06.839Z,10.26
2022-09-17T19:11:35.544Z,10.31
2022-09-17T19:14:03.618Z,10.32
2022-09-17T19:16:31.619Z,10.29
2022-09-17T19:18:59.663Z,10.35
2022-09-17T19:21:27.673Z,10.29
2022-09-17T19:23:55.697Z,10.34
2022-09-17T19:26:27.025Z,10.32
2022-09-17T19:28:57.821Z,10.31
2022-09-17T19:31:27.057Z,10.32
2022-09-17T19:33:55.866Z,10.29
2022-09-17T19:36:23.998Z,10.26
2022-09-17T19:38:52.012Z,10.24
2022-09-17T19:41:23.061Z,10.21
2022-09-17T19:43:54.078Z,10.17
2022-09-17T19:46:24.098Z,10.16
2022-09-17T19:48:53.659Z,10.11
2022-09-17T19:51:25.142Z,10.06
2022-09-17T19:53:53.755Z,10.05
2022-09-17T19:56:23.174Z,10.02
2022-09-17T19:58:53.043Z,10.02
2022-09-17T20:01:21.484Z,9.94
2022-09-17T20:03:49.631Z,9.93
2022-09-17T20:06:20.684Z,9.93
2022-09-17T20:08:50.057Z,9.89
2022-09-17T20:11:22.461Z,9.88
2022-09-17T20:13:56.763Z,9.88
2022-09-17T20:16:24.817Z,9.85
2022-09-17T20:18:53.200Z,9.86
2022-09-17T20:21:22.925Z,9.70
2022-09-17T20:23:51.493Z,9.87
2022-09-17T20:26:19.709Z,9.81
2022-09-17T20:28:49.010Z,9.75
2022-09-17T20:31:21.177Z,9.71
2022-09-17T20:33:51.840Z,9.67
2022-09-17T20:36:21.905Z,9.65
2022-09-17T20:41:40.073Z,9.60
2022-09-17T20:44:08.710Z,9.57
2022-09-17T20:46:38.172Z,9.53
2022-09-17T20:49:06.199Z,9.56
2022-09-17T20:51:34.233Z,9.53
2022-09-17T20:54:02.881Z,9.56
2022-09-17T20:56:33.270Z,9.55
2022-09-17T20:59:08.841Z,9.60
2022-09-17T21:01:38.431Z,9.59
2022-09-17T21:04:08.173Z,9.61
2022-09-17T21:06:38.417Z,9.59
2022-09-17T21:09:07.280Z,9.57
2022-09-17T21:11:35.615Z,9.59
2022-09-17T21:14:04.030Z,9.59
2022-09-17T21:16:32.416Z,9.66
2022-09-17T21:19:03.936Z,9.66
2022-09-17T21:21:34.375Z,9.60
2022-09-17T21:24:04.534Z,9.64
2022-09-17T21:26:34.944Z,9.59
2022-09-17T21:29:02.954Z,9.63
2022-09-17T21:31:33.464Z,9.61
2022-09-17T21:34:05.351Z,9.64
2022-09-17T21:36:36.809Z,9.55
2022-09-17T21:39:07.089Z,9.56
2022-09-17T21:41:39.927Z,9.55
2022-09-17T21:44:10.674Z,9.53
2022-09-17T21:46:39.574Z,9.55
2022-09-17T21:49:09.883Z,9.53
2022-09-17T21:51:39.547Z,9.52
2022-09-17T21:54:09.498Z,9.52
2022-09-17T21:56:38.003Z,9.37
2022-09-17T21:59:07.628Z,9.55
2022-09-17T22:01:39.478Z,9.53
2022-09-17T22:04:10.617Z,9.51
2022-09-17T22:06:38.632Z,9.56
2022-09-17T22:09:07.923Z,9.54
2022-09-17T22:11:38.321Z,9.56
2022-09-17T22:14:10.718Z,9.42
2022-09-17T22:16:40.703Z,9.61
2022-09-17T22:19:11.786Z,9.64
2022-09-17T22:21:41.290Z,9.64
2022-09-17T22:24:10.741Z,9.60
2022-09-17T22:26:40.974Z,9.60
2022-09-17T22:29:12.148Z,9.56
2022-09-17T22:31:40.506Z,9.51
2022-09-17T22:34:10.521Z,9.51
2022-09-17T22:36:39.486Z,9.54
2022-09-17T22:39:07.939Z,9.48
2022-09-17T22:41:39.159Z,9.46
2022-09-17T22:44:08.681Z,9.47
2022-09-17T22:46:39.227Z,9.44
2022-09-17T22:49:07.959Z,9.41
2022-09-17T22:51:38.156Z,9.35
2022-09-17T22:54:07.119Z,9.39
2022-09-17T22:56:36.584Z,9.26
2022-09-17T22:59:05.139Z,9.34
2022-09-17T23:01:36.089Z,9.31
2022-09-17T23:04:05.613Z,9.32
2022-09-17T23:06:36.228Z,9.27
2022-09-17T23:09:06.175Z,9.33
2022-09-17T23:11:37.416Z,9.29
2022-09-17T23:14:08.518Z,9.29
2022-09-17T23:16:37.970Z,9.23
2022-09-17T23:19:05.911Z,9.23
2022-09-17T23:21:33.990Z,9.05
2022-09-17T23:24:03.526Z,9.16
2022-09-17T23:26:33.149Z,9.14
2022-09-17T23:29:05.016Z,9.06
2022-09-17T23:31:35.664Z,9.05
2022-09-17T23:34:05.308Z,9.06
2022-09-17T23:36:34.901Z,9.01
2022-09-17T23:39:03.198Z,8.95
2022-09-17T23:41:34.050Z,8.95
2022-09-17T23:44:04.316Z,8.82
2022-09-17T23:46:34.533Z,8.95
2022-09-17T23:49:03.144Z,8.95
2022-09-17T23:51:32.457Z,8.98
2022-09-17T23:54:00.997Z,8.97
2022-09-17T23:56:29.809Z,8.98
2022-09-17T23:59:01.568Z,8.98
